Time;durP1;ratioP1;P1;durP2;ratioP2;P2;SDS_P1;SDS_P2;PMS_P1;PMS_P2;Temp;Humidity;BMP_temperature;BMP_pressure;BME280_temperature;BME280_humidity;BME280_pressure;Samples;Min_cycle;Max_cycle;Signal;HPM_P1;HPM_P2
2023/06/25 00:02:06;;;;;;;6.85;4.65;;;;;;;20.75;44.12;100157.75;10382337;28;20223;-37
2023/06/25 00:07:07;;;;;;;6.07;5.15;;;;;;;19.76;46.25;100156.81;10386107;28;20315;-39
2023/06/25 00:12:09;;;;;;;7.45;4.80;;;;;;;20.43;45.00;100160.97;10388495;28;20215;-37
2023/06/25 00:17:13;;;;;;;7.15;4.78;;;;;;;19.51;46.75;100148.88;10389849;28;20229;-40
2023/06/25 00:22:14;;;;;;;6.07;4.63;;;;;;;20.47;44.64;100116.75;10389561;28;20216;-40
2023/06/25 00:27:16;;;;;;;8.13;4.65;;;;;;;20.72;44.04;100102.00;10393287;28;20240;-39
2023/06/25 00:32:18;;;;;;;6.22;4.53;;;;;;;19.94;45.35;100123.28;10392645;28;20208;-39
2023/06/25 00:37:20;;;;;;;5.78;4.93;;;;;;;21.81;42.64;100085.47;10391083;28;20290;-40
2023/06/25 00:42:24;;;;;;;5.07;4.45;;;;;;;20.82;44.04;100128.56;10389304;28;20656;-40
2023/06/25 00:47:26;;;;;;;6.88;4.85;;;;;;;22.22;42.13;100122.25;10390483;28;20225;-41
2023/06/25 00:52:29;;;;;;;6.28;5.22;;;;;;;22.27;42.17;100162.38;10392160;28;20627;-41
2023/06/25 00:57:31;;;;;;;5.50;4.28;;;;;;;21.50;43.50;100121.25;10392705;28;20231;-37
2023/06/25 01:02:35;;;;;;;5.35;4.65;;;;;;;20.31;44.44;100197.16;10391618;28;20691;-40
2023/06/25 01:07:43;;;;;;;6.43;4.68;;;;;;;20.64;43.97;100171.16;10393133;28;20236;-40
2023/06/25 01:12:44;;;;;;;5.80;4.65;;;;;;;20.36;44.26;100185.56;10392535;28;20201;-39
2023/06/25 01:17:49;;;;;;;5.00;4.50;;;;;;;21.30;42.77;100118.22;10389118;28;20577;-41
2023/06/25 01:22:51;;;;;;;7.57;4.90;;;;;;;18.98;46.37;100181.22;10394599;28;20679;-41
2023/06/25 01:27:53;;;;;;;5.85;5.03;;;;;;;19.33;46.34;100117.25;10390531;28;20236;-39
2023/06/25 01:32:54;;;;;;;6.13;4.90;;;;;;;19.16;46.31;100134.19;10390664;28;20217;-42
2023/06/25 01:37:58;;;;;;;5.45;4.78;;;;;;;19.42;46.34;100082.44;10391174;28;20660;-36
2023/06/25 01:43:00;;;;;;;5.30;4.60;;;;;;;19.84;45.19;100099.44;10390798;28;20507;-37
2023/06/25 01:48:02;;;;;;;5.55;4.60;;;;;;;18.97;46.89;100116.38;10386237;28;20295;-39
2023/06/25 01:53:04;;;;;;;9.38;5.47;;;;;;;18.58;47.33;100129.44;10389187;28;20227;-38
2023/06/25 01:58:05;;;;;;;11.40;5.55;;;;;;;18.41;48.21;100094.84;10387776;28;20240;-41
2023/06/25 02:03:07;;;;;;;6.00;5.13;;;;;;;18.97;47.42;100041.25;10385012;28;20204;-41
2023/06/25 02:08:09;;;;;;;5.57;4.97;;;;;;;17.89;49.38;100070.06;10389416;28;20372;-40
2023/06/25 02:13:11;;;;;;;7.57;5.27;;;;;;;18.70;47.48;100050.88;10392362;28;20208;-41
2023/06/25 02:18:13;;;;;;;7.97;5.17;;;;;;;17.98;48.74;100079.50;10389555;28;20243;-37
2023/06/25 02:23:15;;;;;;;5.77;5.17;;;;;;;17.33;49.92;100094.31;10387152;28;20331;-40
2023/06/25 02:28:17;;;;;;;6.53;5.20;;;;;;;17.65;49.43;100063.66;10379879;28;20232;-39
2023/06/25 02:33:19;;;;;;;6.57;5.67;;;;;;;17.49;49.83;100059.63;10387794;28;20205;-40
2023/06/25 02:38:20;;;;;;;7.40;5.60;;;;;;;17.75;49.38;100046.88;10389176;28;20232;-39
2023/06/25 02:43:22;;;;;;;6.43;5.63;;;;;;;17.82;49.39;100047.66;10380382;28;20212;-37
2023/06/25 02:48:24;;;;;;;6.40;5.73;;;;;;;17.84;48.99;100086.16;10383086;28;20229;-37
2023/06/25 02:53:26;;;;;;;6.10;5.10;;;;;;;17.98;49.21;100036.19;10388042;28;20205;-40
2023/06/25 02:58:28;;;;;;;7.03;5.60;;;;;;;17.64;49.28;100062.81;10380873;28;20246;-38
2023/06/25 03:03:29;;;;;;;7.20;5.43;;;;;;;17.23;50.10;100096.69;10383941;28;20202;-39
2023/06/25 03:08:32;;;;;;;8.00;6.33;;;;;;;16.90;50.87;100076.13;10390775;28;20307;-36
2023/06/25 03:13:33;;;;;;;6.67;5.80;;;;;;;17.21;50.50;100036.63;10382615;28;20215;-40
2023/06/25 03:18:35;;;;;;;7.43;6.03;;;;;;;17.57;49.76;100026.06;10383960;28;20241;-38
2023/06/25 03:23:37;;;;;;;7.17;5.87;;;;;;;16.72;51.21;100076.03;10387629;28;20627;-39
2023/06/25 03:28:39;;;;;;;6.43;5.50;;;;;;;17.24;50.22;100054.25;10383173;28;20232;-40
2023/06/25 03:33:41;;;;;;;6.17;5.30;;;;;;;17.03;50.73;100061.72;10389877;28;20205;-41
2023/06/25 03:38:43;;;;;;;7.13;5.70;;;;;;;18.04;48.42;100089.44;10386707;28;20221;-40
2023/06/25 03:43:45;;;;;;;7.13;5.80;;;;;;;18.27;47.84;100077.91;10389458;28;20224;-40
2023/06/25 03:48:47;;;;;;;8.77;5.80;;;;;;;19.60;46.30;100049.78;10394026;28;20804;-37
2023/06/25 03:53:49;;;;;;;6.67;5.93;;;;;;;18.79;46.82;100133.50;10391574;28;20244;-36
2023/06/25 03:58:51;;;;;;;9.40;5.97;;;;;;;19.16;46.32;100136.91;10391064;28;20311;-38
2023/06/25 04:03:53;;;;;;;9.63;6.20;;;;;;;20.29;45.03;100089.78;10391028;28;20216;-39
2023/06/25 04:08:54;;;;;;;6.40;5.20;;;;;;;19.16;46.30;100153.19;10388446;28;20320;-38
2023/06/25 04:13:56;;;;;;;6.50;5.50;;;;;;;19.61;46.11;100096.75;10395659;28;20205;-39
2023/06/25 04:18:58;;;;;;;8.93;5.50;;;;;;;19.41;45.75;100135.06;10389477;28;20509;-39
2023/06/25 04:24:00;;;;;;;8.77;6.27;;;;;;;18.66;47.20;100177.91;10393908;28;20416;-39
2023/06/25 04:29:02;;;;;;;6.70;6.00;;;;;;;18.59;47.61;100169.00;10389086;28;20440;-38
2023/06/25 04:34:04;;;;;;;7.77;5.67;;;;;;;18.93;46.99;100164.81;10393418;28;20213;-37
2023/06/25 04:39:06;;;;;;;7.07;5.30;;;;;;;20.38;45.14;100074.75;10390126;28;20569;-37
2023/06/25 04:44:08;;;;;;;8.20;5.30;;;;;;;20.25;45.00;100179.09;10390088;28;20212;-39
2023/06/25 04:49:10;;;;;;;7.00;5.10;;;;;;;18.65;47.22;100225.84;10383509;28;20256;-38
2023/06/25 04:54:12;;;;;;;6.78;6.00;;;;;;;19.49;46.48;100162.69;10390285;28;20263;-40
2023/06/25 04:59:14;;;;;;;6.40;5.57;;;;;;;19.52;46.53;100147.81;10384476;28;20248;-39
2023/06/25 05:04:16;;;;;;;6.23;5.03;;;;;;;18.19;48.95;100189.25;10388139;28;20216;-37
2023/06/25 05:09:18;;;;;;;6.10;5.23;;;;;;;18.99;48.27;100112.34;10383105;28;20278;-38
2023/06/25 05:14:19;;;;;;;7.05;5.80;;;;;;;18.57;48.13;100192.81;10383892;28;20205;-39
2023/06/25 05:19:21;;;;;;;6.72;5.35;;;;;;;19.70;46.69;100139.56;10387334;28;20229;-35
2023/06/25 05:24:23;;;;;;;6.40;4.90;;;;;;;19.98;45.78;100180.66;10387537;28;20219;-37
2023/06/25 05:29:25;;;;;;;6.40;4.78;;;;;;;19.58;46.55;100187.63;10388326;28;20229;-37
2023/06/25 05:34:51;;;;;;;6.35;5.07;;;;;;;19.20;46.82;100167.13;10392786;28;20706;-40
2023/06/25 05:39:53;;;;;;;6.43;4.93;;;;;;;19.82;46.30;100172.16;10387489;28;20225;-38
2023/06/25 05:44:55;;;;;;;6.30;5.00;;;;;;;21.29;44.13;100103.78;10389126;28;20240;-36
2023/06/25 05:49:57;;;;;;;5.93;4.75;;;;;;;21.56;43.53;100152.94;10392993;28;20515;-37
2023/06/25 05:54:58;;;;;;;7.13;4.75;;;;;;;19.65;45.94;100228.22;10381872;28;20244;-36
2023/06/25 06:00:00;;;;;;;6.22;4.82;;;;;;;21.29;43.77;100122.84;10389533;28;20949;-35
2023/06/25 06:05:03;;;;;;;7.78;4.65;;;;;;;20.27;45.19;100197.88;10392390;28;20836;-39
2023/06/25 06:10:05;;;;;;;5.82;4.63;;;;;;;21.68;44.10;100122.91;10384093;28;20233;-38
2023/06/25 06:15:08;;;;;;;5.32;4.70;;;;;;;20.73;44.64;100170.78;10388319;28;20996;-39
2023/06/25 06:20:10;;;;;;;7.88;4.50;;;;;;;20.12;45.69;100190.19;10381917;28;20231;-40
2023/06/25 06:25:12;;;;;;;6.68;4.32;;;;;;;21.57;43.79;100138.25;10384435;28;20225;-38
2023/06/25 06:30:14;;;;;;;5.15;4.38;;;;;;;21.78;43.83;100125.75;10386136;28;20229;-38
2023/06/25 06:35:16;;;;;;;5.55;4.57;;;;;;;21.63;43.44;100141.03;10385503;28;20201;-39
2023/06/25 06:40:18;;;;;;;6.00;4.88;;;;;;;21.50;43.79;100174.91;10387252;28;20722;-39
2023/06/25 06:45:19;;;;;;;5.97;4.18;;;;;;;21.88;43.72;100148.75;10378583;28;20710;-38
2023/06/25 06:50:21;;;;;;;5.45;4.70;;;;;;;22.63;42.63;100119.19;10377502;28;20241;-37
2023/06/25 06:55:23;;;;;;;4.93;4.43;;;;;;;22.70;43.06;100133.44;10378995;28;20205;-39
2023/06/25 07:00:26;;;;;;;5.90;4.40;;;;;;;22.18;42.95;100142.91;10379339;28;20252;-37
2023/06/25 07:05:28;;;;;;;4.78;3.90;;;;;;;23.04;42.99;100138.66;10380181;28;20280;-41
2023/06/25 07:10:30;;;;;;;4.70;4.28;;;;;;;23.31;41.68;100129.63;10384386;28;20595;-37
2023/06/25 07:15:32;;;;;;;4.80;4.28;;;;;;;22.12;42.82;100185.63;10391447;28;20628;-40
2023/06/25 07:20:34;;;;;;;5.03;4.15;;;;;;;23.52;41.35;100144.25;10386267;28;20235;-37
2023/06/25 07:25:35;;;;;;;7.57;4.45;;;;;;;23.77;41.08;100162.72;10390326;28;20229;-36
2023/06/25 07:30:38;;;;;;;5.53;4.28;;;;;;;23.18;41.96;100150.81;10387008;28;20319;-38
2023/06/25 07:35:40;;;;;;;5.60;4.38;;;;;;;23.28;40.81;100165.63;10386649;28;20259;-38
2023/06/25 07:40:43;;;;;;;5.03;4.18;;;;;;;24.78;39.53;100110.63;10391146;28;20507;-38
2023/06/25 07:45:45;;;;;;;6.10;4.43;;;;;;;23.58;40.30;100168.59;10381260;28;20220;-39
2023/06/25 07:50:47;;;;;;;5.43;3.97;;;;;;;24.07;40.09;100150.31;10384105;28;20241;-40
2023/06/25 07:55:49;;;;;;;5.82;4.35;;;;;;;25.02;38.41;100136.38;10382931;28;20212;-36
2023/06/25 08:01:03;;;;;;;5.63;4.43;;;;;;;25.24;39.00;100136.13;10375290;28;20477;-38
2023/06/25 08:06:04;;;;;;;6.68;4.15;;;;;;;24.55;39.74;100132.72;10387811;28;20445;-36
2023/06/25 08:11:06;;;;;;;5.63;4.32;;;;;;;23.86;39.89;100120.16;10388114;28;20215;-40
2023/06/25 08:16:08;;;;;;;4.20;3.80;;;;;;;25.46;38.85;100086.50;10379319;28;20875;-39
2023/06/25 08:21:10;;;;;;;5.75;4.55;;;;;;;25.64;38.52;100076.03;10383448;28;20220;-37
2023/06/25 08:26:15;;;;;;;5.47;3.92;;;;;;;25.29;38.22;100102.44;10388908;28;20225;-43
2023/06/25 08:31:17;;;;;;;4.10;3.70;;;;;;;24.22;38.89;100166.78;10376888;28;20212;-37
2023/06/25 08:36:19;;;;;;;4.55;4.07;;;;;;;25.29;36.63;100155.28;10386384;28;20233;-39
2023/06/25 08:41:21;;;;;;;6.47;4.20;;;;;;;25.70;37.46;100096.03;10384043;28;20206;-38
2023/06/25 08:46:24;;;;;;;4.18;3.75;;;;;;;26.37;36.31;100097.44;10382343;28;20248;-42
2023/06/25 08:51:26;;;;;;;5.78;4.20;;;;;;;25.47;38.00;100117.44;10378471;28;20540;-40
2023/06/25 08:56:28;;;;;;;4.72;3.95;;;;;;;26.30;35.33;100099.66;10375962;28;20610;-38
2023/06/25 09:01:30;;;;;;;7.05;4.10;;;;;;;26.96;35.84;100053.66;10382237;28;20671;-42
2023/06/25 09:06:39;;;;;;;5.53;4.32;;;;;;;25.90;36.76;100101.47;10383719;28;20228;-41
2023/06/25 09:12:01;;;;;;;4.95;3.53;;;;;;;26.53;35.43;100069.88;10385081;28;20294;-37
2023/06/25 09:17:04;;;;;;;7.65;3.50;;;;;;;26.76;34.71;100077.41;10384446;28;20221;-40
2023/06/25 09:22:06;;;;;;;5.20;3.70;;;;;;;26.83;33.54;100085.31;10380914;28;20223;-40
2023/06/25 09:27:10;;;;;;;6.18;3.85;;;;;;;27.03;33.86;100069.78;10380179;28;20384;-40
2023/06/25 09:32:12;;;;;;;5.18;3.80;;;;;;;26.93;33.63;100035.81;10388220;28;20212;-35
2023/06/25 09:37:14;;;;;;;5.20;4.00;;;;;;;27.09;32.99;100027.44;10375296;28;20231;-39
2023/06/25 09:42:18;;;;;;;5.07;4.13;;;;;;;26.70;32.33;100053.03;10382073;28;20919;-40
2023/06/25 09:47:20;;;;;;;5.60;4.13;;;;;;;27.30;32.06;100056.34;10383118;28;20239;-41
2023/06/25 09:52:24;;;;;;;6.03;4.38;;;;;;;28.08;31.99;100011.44;10381163;28;20209;-40
2023/06/25 09:57:28;;;;;;;5.18;4.22;;;;;;;27.26;31.62;100032.50;10381872;28;20603;-38
2023/06/25 10:02:30;;;;;;;4.82;4.22;;;;;;;26.99;31.97;100009.16;10389606;28;20201;-39
2023/06/25 10:07:33;;;;;;;5.15;4.10;;;;;;;28.25;30.47;99991.69;10386442;28;20228;-40
2023/06/25 10:12:36;;;;;;;5.30;4.15;;;;;;;28.09;30.20;100005.66;10380606;28;20672;-39
2023/06/25 10:17:51;;;;;;;6.30;4.00;;;;;;;26.74;30.30;100032.16;10385800;28;20232;-40
2023/06/25 10:23:13;;;;;;;5.13;4.00;;;;;;;28.56;29.79;99992.81;10393048;28;20225;-39
2023/06/25 10:28:15;;;;;;;4.40;3.92;;;;;;;28.33;29.98;99985.50;10386043;28;20687;-40
2023/06/25 10:33:17;;;;;;;5.78;3.70;;;;;;;28.55;30.18;99979.34;10385368;28;20209;-40
2023/06/25 10:38:19;;;;;;;4.88;4.10;;;;;;;28.87;28.76;99974.97;10390600;28;20268;-39
2023/06/25 10:43:21;;;;;;;5.38;4.40;;;;;;;28.30;30.04;99973.16;10388846;28;20558;-40
2023/06/25 10:48:24;;;;;;;4.95;3.85;;;;;;;28.00;29.97;99975.25;10392182;28;20605;-37
2023/06/25 10:53:26;;;;;;;6.57;4.43;;;;;;;27.83;29.67;99983.19;10386357;28;20270;-40
2023/06/25 10:58:28;;;;;;;8.60;4.40;;;;;;;29.07;28.56;99935.19;10391030;28;20236;-42
2023/06/25 11:06:22;;;;;;;6.25;4.10;;;;;;;28.12;28.62;99935.47;10496909;28;20853;-69
2023/06/25 11:11:24;;;;;;;4.43;3.80;;;;;;;28.11;28.75;99940.16;10469491;28;20218;-69
2023/06/25 11:16:26;;;;;;;6.13;3.85;;;;;;;27.13;28.93;99960.66;10449781;28;20235;-69
2023/06/25 11:21:34;;;;;;;4.75;3.95;;;;;;;28.96;27.77;99946.44;10470751;28;20211;-69
2023/06/25 11:26:41;;;;;;;5.45;4.18;;;;;;;28.24;28.53;99955.13;10461935;28;20287;-67
2023/06/25 11:31:52;;;;;;;5.10;4.30;;;;;;;28.16;28.61;99933.75;10466862;28;20206;-69
2023/06/25 11:36:53;;;;;;;5.50;4.40;;;;;;;28.03;28.00;99952.63;10463769;28;20239;-70
2023/06/25 11:41:55;;;;;;;4.60;3.85;;;;;;;27.62;27.95;99946.91;10465158;28;20231;-69
2023/06/25 11:46:58;;;;;;;4.63;3.90;;;;;;;28.88;27.47;99905.00;10473538;28;20885;-68
2023/06/25 11:52:00;;;;;;;4.97;3.90;;;;;;;28.96;27.34;99918.06;10463493;28;20239;-68
2023/06/25 11:57:02;;;;;;;4.32;3.65;;;;;;;29.53;27.14;99918.53;10465234;28;20738;-67
2023/06/25 12:02:04;;;;;;;6.15;4.20;;;;;;;28.83;27.54;99930.72;10474435;28;20243;-69
2023/06/25 12:07:06;;;;;;;4.57;3.95;;;;;;;29.12;28.37;99908.38;10463418;28;20303;-67
2023/06/25 12:12:10;;;;;;;6.50;4.25;;;;;;;29.36;27.79;99881.72;10455980;28;20203;-68
2023/06/25 12:17:11;;;;;;;4.68;3.80;;;;;;;29.06;27.63;99893.06;10441348;28;20882;-69
2023/06/25 12:22:13;;;;;;;4.38;3.70;;;;;;;28.87;27.64;99881.34;10434922;28;20286;-68
2023/06/25 12:27:15;;;;;;;5.20;4.03;;;;;;;29.17;27.90;99860.66;10439770;28;20710;-69
2023/06/25 12:32:17;;;;;;;5.82;4.20;;;;;;;29.39;27.78;99870.91;10444164;28;20228;-69
2023/06/25 12:37:19;;;;;;;4.93;4.15;;;;;;;29.51;26.43;99890.47;10440841;28;20782;-68
2023/06/25 12:42:20;;;;;;;4.53;4.10;;;;;;;29.42;27.56;99874.97;10437304;28;20220;-69
2023/06/25 12:47:22;;;;;;;5.70;4.55;;;;;;;30.33;26.87;99882.19;10437331;28;20233;-68
2023/06/25 12:52:24;;;;;;;5.05;4.10;;;;;;;30.18;27.53;99869.59;10434773;28;20204;-66
2023/06/25 12:57:26;;;;;;;5.45;4.50;;;;;;;30.05;26.44;99882.34;10433432;28;20657;-64
2023/06/25 13:02:27;;;;;;;6.15;4.13;;;;;;;29.60;26.54;99882.28;10439994;28;20321;-65
2023/06/25 13:07:29;;;;;;;5.78;4.45;;;;;;;30.05;26.46;99842.91;10429320;28;20287;-64
2023/06/25 13:12:31;;;;;;;6.97;4.88;;;;;;;29.72;26.94;99828.53;10432294;28;20211;-65
2023/06/25 13:17:34;;;;;;;5.40;4.55;;;;;;;31.20;26.06;99815.41;10438187;28;20572;-65
2023/06/25 13:22:36;;;;;;;5.13;4.63;;;;;;;29.22;26.72;99832.97;10436024;28;20236;-65
2023/06/25 13:27:38;;;;;;;6.97;4.47;;;;;;;30.39;26.22;99852.50;10425741;28;20218;-65
2023/06/25 13:32:40;;;;;;;6.35;4.22;;;;;;;29.91;26.37;99842.13;10430928;28;20918;-65
2023/06/25 13:37:42;;;;;;;5.32;4.15;;;;;;;29.67;26.70;99837.75;10424868;28;20218;-64
2023/06/25 13:42:43;;;;;;;6.47;4.78;;;;;;;30.52;26.05;99821.25;10436171;28;20220;-63
2023/06/25 13:47:45;;;;;;;6.07;4.78;;;;;;;29.71;26.00;99844.28;10429026;28;20607;-64
2023/06/25 13:52:47;;;;;;;5.18;4.18;;;;;;;30.27;25.57;99833.78;10425650;28;20228;-63
2023/06/25 13:57:49;;;;;;;4.80;4.30;;;;;;;30.61;26.05;99811.03;10429559;28;20813;-63
2023/06/25 14:02:52;;;;;;;5.60;4.65;;;;;;;30.74;26.49;99819.53;10436086;28;20244;-64
2023/06/25 14:08:13;;;;;;;5.63;4.22;;;;;;;30.86;25.89;99825.25;10434384;28;20203;-64
2023/06/25 14:13:16;;;;;;;5.85;4.70;;;;;;;31.53;25.58;99806.69;10439772;28;20219;-63
2023/06/25 14:18:18;;;;;;;9.68;5.00;;;;;;;30.14;26.80;99802.38;10440551;28;20227;-63
2023/06/25 14:23:21;;;;;;;6.00;5.03;;;;;;;30.68;26.57;99802.28;10437493;28;20235;-65
2023/06/25 14:28:23;;;;;;;5.93;4.50;;;;;;;30.06;25.71;99800.38;10432339;28;20222;-66
2023/06/25 14:33:30;;;;;;;6.80;4.78;;;;;;;30.10;26.16;99817.94;10432268;28;20273;-65
2023/06/25 14:38:34;;;;;;;5.18;4.20;;;;;;;31.36;25.28;99771.53;10421462;28;20298;-67
2023/06/25 14:43:35;;;;;;;5.65;4.40;;;;;;;31.77;25.46;99767.44;10439533;28;20918;-67
2023/06/25 14:48:37;;;;;;;6.65;4.22;;;;;;;29.97;25.50;99816.06;10431943;28;20212;-68
2023/06/25 14:53:39;;;;;;;6.85;4.65;;;;;;;30.90;25.55;99803.31;10438700;28;20273;-71
2023/06/25 14:58:41;;;;;;;5.80;4.47;;;;;;;31.42;24.85;99786.81;10429087;28;20217;-70
2023/06/25 15:03:43;;;;;;;6.50;5.13;;;;;;;30.99;25.91;99791.19;10427885;28;20247;-71
2023/06/25 15:08:45;;;;;;;5.13;4.63;;;;;;;30.70;24.92;99810.25;10428493;28;20205;-70
2023/06/25 15:13:47;;;;;;;5.13;4.63;;;;;;;29.35;25.72;99792.72;10427967;28;20261;-71
2023/06/25 15:18:48;;;;;;;5.22;4.53;;;;;;;31.12;25.86;99772.84;10420631;28;20216;-71
2023/06/25 15:23:50;;;;;;;5.18;4.30;;;;;;;31.41;24.09;99768.63;10427992;28;20232;-68
2023/06/25 15:28:52;;;;;;;6.43;4.40;;;;;;;30.85;25.44;99773.91;10430949;28;20220;-73
2023/06/25 15:33:54;;;;;;;5.93;4.70;;;;;;;31.56;25.00;99759.00;10430608;28;20231;-69
2023/06/25 15:38:56;;;;;;;5.10;4.13;;;;;;;31.65;25.23;99764.53;10436061;28;20293;-69
2023/06/25 15:43:57;;;;;;;6.80;5.45;;;;;;;31.41;25.27;99763.09;10428715;28;20243;-70
2023/06/25 15:49:00;;;;;;;6.93;5.07;;;;;;;31.35;25.07;99767.94;10425932;28;20204;-70
2023/06/25 15:54:02;;;;;;;6.70;4.38;;;;;;;31.59;25.13;99765.84;10433342;28;20270;-70
2023/06/25 15:59:21;;;;;;;6.22;4.75;;;;;;;32.30;24.49;99743.19;10435264;28;20212;-70
2023/06/25 16:04:23;;;;;;;7.45;4.97;;;;;;;32.02;24.76;99737.28;10438679;28;20306;-69
2023/06/25 16:09:25;;;;;;;7.15;4.80;;;;;;;30.96;24.83;99766.97;10436194;28;20268;-69
2023/06/25 16:14:27;;;;;;;7.13;4.88;;;;;;;31.39;25.28;99775.63;10432733;28;20709;-70
2023/06/25 16:19:29;;;;;;;9.40;4.45;;;;;;;32.00;24.08;99756.97;10423586;28;20290;-70
2023/06/25 16:24:51;;;;;;;6.18;4.78;;;;;;;32.16;23.81;99778.56;10438275;28;20231;-69
2023/06/25 16:29:53;;;;;;;6.03;4.90;;;;;;;31.86;24.05;99779.28;10426694;28;20216;-68
2023/06/25 16:34:54;;;;;;;7.47;4.65;;;;;;;32.21;24.24;99770.06;10435990;28;20277;-69
2023/06/25 16:39:56;;;;;;;6.50;4.65;;;;;;;32.70;24.56;99764.19;10429173;28;20234;-68
2023/06/25 16:44:58;;;;;;;5.28;4.30;;;;;;;32.46;23.94;99760.84;10441617;28;20242;-69
2023/06/25 16:50:00;;;;;;;5.57;4.75;;;;;;;32.97;24.30;99755.34;10432668;28;20261;-69
2023/06/25 16:55:02;;;;;;;5.90;4.53;;;;;;;32.74;25.08;99768.69;10446978;28;20224;-69
2023/06/25 17:00:04;;;;;;;6.60;4.63;;;;;;;31.58;24.83;99759.50;10430363;28;20877;-68
2023/06/25 17:05:09;;;;;;;5.68;4.15;;;;;;;31.42;25.52;99744.56;10441884;28;20227;-69
2023/06/25 17:10:10;;;;;;;6.45;4.80;;;;;;;32.99;25.45;99743.91;10436681;28;20257;-71
2023/06/25 17:15:12;;;;;;;5.65;4.55;;;;;;;31.31;25.83;99766.97;10439143;28;20222;-69
2023/06/25 17:20:14;;;;;;;4.70;4.05;;;;;;;31.11;25.36;99773.16;10437202;28;20200;-69
2023/06/25 17:25:16;;;;;;;5.57;4.50;;;;;;;30.22;25.73;99762.97;10421168;28;20234;-68
2023/06/25 17:30:18;;;;;;;5.13;4.22;;;;;;;31.72;25.79;99751.00;10442277;28;20216;-68
2023/06/25 17:35:20;;;;;;;5.03;4.40;;;;;;;31.76;25.82;99762.22;10441815;28;20311;-69
2023/06/25 17:40:22;;;;;;;6.32;4.68;;;;;;;32.88;24.82;99737.16;10436745;28;20215;-70
2023/06/25 17:45:25;;;;;;;5.38;4.18;;;;;;;31.15;26.05;99763.88;10430294;28;20293;-71
2023/06/25 17:50:27;;;;;;;6.72;4.05;;;;;;;30.70;27.63;99741.22;10432765;28;20262;-69
2023/06/25 17:55:29;;;;;;;5.72;4.55;;;;;;;32.26;26.87;99734.75;10431956;28;20231;-67
2023/06/25 18:00:31;;;;;;;4.18;3.65;;;;;;;31.27;27.75;99768.75;10432305;28;20216;-69
2023/06/25 18:05:33;;;;;;;5.90;4.47;;;;;;;31.53;27.91;99740.31;10424098;28;20248;-68
2023/06/25 18:10:35;;;;;;;5.93;4.45;;;;;;;32.01;27.57;99741.19;10428832;28;20758;-68
2023/06/25 18:15:40;;;;;;;4.43;3.90;;;;;;;31.26;28.86;99761.63;10429529;28;20589;-68
2023/06/25 18:20:41;;;;;;;5.22;4.32;;;;;;;29.99;29.74;99767.72;10437872;28;20219;-70
2023/06/25 18:25:43;;;;;;;5.95;4.25;;;;;;;30.19;30.14;99747.06;10435444;28;20240;-68
2023/06/25 18:30:45;;;;;;;4.88;4.20;;;;;;;30.25;29.16;99753.28;10443095;28;20221;-70
2023/06/25 18:35:47;;;;;;;5.38;4.28;;;;;;;30.71;29.52;99748.38;10432330;28;20227;-68
2023/06/25 18:40:49;;;;;;;5.05;4.43;;;;;;;31.67;28.69;99754.75;10434500;28;20214;-69
2023/06/25 18:45:50;;;;;;;5.13;4.30;;;;;;;30.21;29.29;99796.41;10431268;28;20267;-67
2023/06/25 18:50:52;;;;;;;4.88;4.30;;;;;;;31.47;28.50;99760.97;10437651;28;20667;-68
2023/06/25 18:55:55;;;;;;;6.93;5.05;;;;;;;31.31;28.84;99760.63;10441080;28;20230;-65
2023/06/25 19:00:57;;;;;;;4.93;4.18;;;;;;;30.65;29.66;99760.72;10437364;28;20262;-66
2023/06/25 19:05:59;;;;;;;5.72;4.22;;;;;;;31.25;29.19;99759.19;10439382;28;20239;-64
2023/06/25 19:11:01;;;;;;;6.68;4.32;;;;;;;30.72;28.62;99777.59;10427016;28;20257;-66
2023/06/25 19:16:04;;;;;;;6.28;4.57;;;;;;;30.34;30.24;99756.84;10433167;28;20221;-66
2023/06/25 19:21:06;;;;;;;5.45;4.35;;;;;;;29.74;30.53;99762.88;10427230;28;20208;-66
2023/06/25 19:26:08;;;;;;;4.60;4.07;;;;;;;29.36;30.76;99753.03;10432845;28;20791;-66
2023/06/25 19:31:09;;;;;;;6.38;4.75;;;;;;;29.56;30.28;99742.63;10435311;28;20220;-68
2023/06/25 19:36:13;;;;;;;5.30;4.60;;;;;;;28.99;30.42;99756.91;10441645;28;20306;-68
2023/06/25 19:41:15;;;;;;;4.95;4.30;;;;;;;29.59;29.39;99762.16;10436613;28;20208;-67
2023/06/25 19:46:17;;;;;;;5.32;4.30;;;;;;;29.40;29.48;99769.75;10439348;28;20307;-67
2023/06/25 19:51:19;;;;;;;4.85;4.35;;;;;;;28.80;29.92;99771.63;10432313;28;20837;-66
2023/06/25 19:56:22;;;;;;;6.25;4.65;;;;;;;28.77;29.78;99788.75;10439119;28;21013;-66
2023/06/25 20:01:24;;;;;;;5.60;5.00;;;;;;;29.02;30.20;99762.59;10425487;28;20212;-66
2023/06/25 20:06:26;;;;;;;7.18;4.38;;;;;;;28.35;30.74;99774.97;10448024;28;20259;-66
2023/06/25 20:11:28;;;;;;;5.78;4.82;;;;;;;29.67;29.72;99777.94;10437652;28;21041;-67
2023/06/25 20:16:30;;;;;;;5.70;4.82;;;;;;;27.92;31.11;99779.88;10445476;28;20288;-66
2023/06/25 20:21:32;;;;;;;5.93;4.80;;;;;;;27.65;32.50;99771.22;10439379;28;20216;-66
2023/06/25 20:26:34;;;;;;;5.40;4.35;;;;;;;27.08;32.28;99773.19;10434031;28;20231;-66
2023/06/25 20:31:35;;;;;;;6.50;4.55;;;;;;;27.45;32.19;99796.28;10439848;28;20250;-66
2023/06/25 20:36:37;;;;;;;5.72;4.68;;;;;;;26.91;33.40;99782.72;10443741;28;20335;-65
2023/06/25 20:41:39;;;;;;;5.57;4.68;;;;;;;26.58;34.03;99768.84;10437221;28;20298;-66
2023/06/25 20:46:42;;;;;;;5.88;4.90;;;;;;;26.28;34.32;99785.66;10435897;28;20742;-64
2023/06/25 20:51:44;;;;;;;6.03;5.00;;;;;;;26.21;34.87;99775.00;10434189;28;20212;-64
2023/06/25 20:56:45;;;;;;;6.43;5.35;;;;;;;25.98;35.32;99780.16;10444258;28;20908;-64
2023/06/25 21:01:47;;;;;;;10.80;4.85;;;;;;;25.47;35.27;99791.50;10432180;28;20259;-63
2023/06/25 21:06:49;;;;;;;6.38;4.68;;;;;;;25.31;35.02;99790.78;10440603;28;20227;-63
2023/06/25 21:11:51;;;;;;;7.20;5.10;;;;;;;24.77;34.90;99795.16;10432843;28;20571;-63
2023/06/25 21:16:52;;;;;;;5.22;4.53;;;;;;;25.22;33.91;99793.31;10433548;28;20236;-64
2023/06/25 21:21:56;;;;;;;5.78;4.88;;;;;;;25.34;33.58;99798.44;10442003;28;20714;-65
2023/06/25 21:26:57;;;;;;;5.70;4.78;;;;;;;27.04;32.22;99794.09;10437783;28;20237;-65
2023/06/25 21:31:59;;;;;;;6.05;4.90;;;;;;;25.54;33.75;99826.78;10433272;28;20215;-63
2023/06/25 21:37:01;;;;;;;6.00;4.93;;;;;;;24.52;36.49;99805.03;10436829;28;20223;-65
2023/06/25 21:42:03;;;;;;;7.82;4.80;;;;;;;25.04;35.97;99774.78;10437090;28;20219;-65
2023/06/25 21:47:05;;;;;;;7.00;5.55;;;;;;;24.77;35.56;99786.94;10430430;28;20827;-64
2023/06/25 21:52:09;;;;;;;5.85;4.72;;;;;;;25.38;35.28;99793.22;10439180;28;20722;-65
2023/06/25 21:57:11;;;;;;;6.20;5.10;;;;;;;26.86;35.54;99802.03;10429004;28;20231;-65
2023/06/25 22:02:13;;;;;;;8.70;5.38;;;;;;;26.89;36.08;99795.94;10428509;28;20336;-65
2023/06/25 22:07:17;;;;;;;7.40;5.40;;;;;;;27.20;35.44;99798.25;10437692;28;20685;-65
2023/06/25 22:12:19;;;;;;;6.32;5.25;;;;;;;26.59;35.88;99805.34;10430803;28;20693;-66
2023/06/25 22:17:24;;;;;;;6.82;5.28;;;;;;;26.67;36.31;99807.44;10440981;28;20278;-65
2023/06/25 22:22:26;;;;;;;7.57;5.00;;;;;;;26.42;36.01;99811.28;10434149;28;20215;-65
2023/06/25 22:27:28;;;;;;;6.47;4.75;;;;;;;26.53;35.35;99809.25;10425874;28;20276;-65
2023/06/25 22:32:43;;;;;;;5.85;4.50;;;;;;;26.73;34.90;99820.00;10416346;28;20675;-64
2023/06/25 22:37:45;;;;;;;5.68;4.78;;;;;;;26.45;35.16;99821.69;10430644;28;20729;-63
2023/06/25 22:42:47;;;;;;;6.53;4.43;;;;;;;25.60;36.72;99822.91;10408945;28;20234;-64
2023/06/25 22:47:49;;;;;;;6.07;4.60;;;;;;;26.24;35.75;99803.81;10431783;28;20264;-64
2023/06/25 22:52:51;;;;;;;5.90;4.70;;;;;;;25.84;35.67;99818.41;10426184;28;20212;-64
2023/06/25 22:57:53;;;;;;;5.47;4.32;;;;;;;24.54;37.56;99802.03;10429512;28;20350;-63
2023/06/25 23:02:54;;;;;;;6.40;4.38;;;;;;;25.67;35.40;99785.06;10421049;28;20621;-65
2023/06/25 23:07:56;;;;;;;5.60;4.70;;;;;;;26.20;34.87;99806.28;10436918;28;20762;-64
2023/06/25 23:12:58;;;;;;;5.82;4.72;;;;;;;25.05;35.62;99822.94;10437331;28;20239;-65
2023/06/25 23:18:00;;;;;;;7.53;4.90;;;;;;;24.50;36.54;99811.91;10424876;28;20200;-64
2023/06/25 23:23:02;;;;;;;7.38;4.70;;;;;;;25.02;35.17;99796.97;10427927;28;20228;-64